Terminal Aerodrome Forecast
Issued by NWS

Home | Current Version | Previous Version | Text Only | Print | Product List | Glossary On
Versions: 1 2 3 4 5 6 7 8 9 10 11 12 13 14 15 16
000
FTUS44 KHGX 200711 AAA
TAFSGR
TAF AMD
KSGR 200711Z 2007/2106 19006KT P6SM OVC003
     FM200900 VRB03KT 6SM BR FEW015 SCT150
      TEMPO 2010/2013 2SM BR SCT003 BKN015
     FM201500 14010KT P6SM FEW030 SCT070 SCT250
     FM210200 15006KT P6SM BKN060 BKN120=

USA.gov is the U.S. government's official web portal to all federal, state and local government web resources and services.